Time;durP1;ratioP1;P1;durP2;ratioP2;P2;SDS_P1;SDS_P2;PMS_P1;PMS_P2;Temp;Humidity;BMP_temperature;BMP_pressure;BME280_temperature;BME280_humidity;BME280_pressure;Samples;Min_cycle;Max_cycle;Signal;HPM_P1;HPM_P2
2022/02/05 00:05:29;;;;;;;175.02;76.93;;;;;;;;;;5034673;28;20037;-66
2022/02/05 00:08:14;;;;;;;157.50;75.90;;;;;;;;;;5034740;28;20022;-65
2022/02/05 00:40:47;;;;;;;123.95;61.42;;;;;;;;;;5033513;28;20049;-65
2022/02/05 00:43:16;;;;;;;109.10;54.60;;;;;;;;;;5034001;28;20026;-66
2022/02/05 00:45:45;;;;;;;101.90;51.88;;;;;;;;;;5033988;28;20037;-64
2022/02/05 00:48:13;;;;;;;104.38;52.33;;;;;;;;;;5033461;28;20144;-67
2022/02/05 00:50:44;;;;;;;118.38;56.30;;;;;;;;;;5033849;28;20113;-67
2022/02/05 00:53:35;;;;;;;113.30;56.05;;;;;;;;;;5032579;28;20032;-64
2022/02/05 00:56:08;;;;;;;122.07;57.70;;;;;;;;;;5033251;28;20033;-65
2022/02/05 00:58:37;;;;;;;108.18;54.35;;;;;;;;;;5033750;28;20171;-66
2022/02/05 01:01:03;;;;;;;104.30;52.53;;;;;;;;;;5033377;28;20026;-65
2022/02/05 01:03:30;;;;;;;105.18;50.65;;;;;;;;;;5033088;28;20436;-67
2022/02/05 01:05:56;;;;;;;112.57;52.33;;;;;;;;;;5032250;28;20021;-67
2022/02/05 01:08:24;;;;;;;102.75;49.20;;;;;;;;;;5033495;28;20021;-67
2022/02/05 01:10:51;;;;;;;95.25;51.97;;;;;;;;;;5032202;28;20030;-67
2022/02/05 01:13:17;;;;;;;92.30;48.30;;;;;;;;;;5033440;28;20433;-66
2022/02/05 01:15:56;;;;;;;95.60;50.05;;;;;;;;;;5033445;28;20472;-66
2022/02/05 01:18:24;;;;;;;99.65;50.42;;;;;;;;;;5033460;28;20028;-67
2022/02/05 01:21:08;;;;;;;102.20;50.70;;;;;;;;;;5033030;28;20105;-67
2022/02/05 01:23:44;;;;;;;100.75;51.63;;;;;;;;;;5033390;28;20132;-66
2022/02/05 01:26:28;;;;;;;103.53;52.90;;;;;;;;;;5033349;28;20029;-64
2022/02/05 01:29:02;;;;;;;101.93;51.28;;;;;;;;;;5031995;28;20374;-64
2022/02/05 01:31:36;;;;;;;98.38;52.15;;;;;;;;;;5033261;28;20029;-64
2022/02/05 01:58:36;;;;;;;165.90;82.05;;;;;;;;;;5032907;28;20167;-64
2022/02/05 02:12:02;;;;;;;153.38;75.93;;;;;;;;;;5032550;28;20045;-66
2022/02/05 02:14:40;;;;;;;157.57;78.82;;;;;;;;;;5034814;28;20026;-66
2022/02/05 02:22:48;;;;;;;164.52;83.75;;;;;;;;;;5036608;28;20477;-67
2022/02/05 02:28:02;;;;;;;175.60;84.55;;;;;;;;;;5036523;28;20466;-67
2022/02/05 02:30:34;;;;;;;180.00;88.25;;;;;;;;;;5036467;28;20056;-67
2022/02/05 02:33:10;;;;;;;173.07;87.53;;;;;;;;;;5036456;28;20116;-66
2022/02/05 02:35:42;;;;;;;183.20;87.95;;;;;;;;;;5035139;28;20394;-67
2022/02/05 02:38:12;;;;;;;180.02;90.30;;;;;;;;;;5036440;28;20021;-68
2022/02/05 02:43:12;;;;;;;202.57;96.35;;;;;;;;;;5036217;28;20596;-68
2022/02/05 02:45:41;;;;;;;217.52;100.68;;;;;;;;;;5036271;28;20104;-66
2022/02/05 02:48:07;;;;;;;183.25;94.55;;;;;;;;;;5036267;28;20041;-66
2022/02/05 02:56:24;;;;;;;205.05;102.45;;;;;;;;;;5034517;28;20026;-68
2022/02/05 02:58:51;;;;;;;200.77;98.95;;;;;;;;;;5035993;28;20121;-66
2022/02/05 03:01:19;;;;;;;217.00;106.13;;;;;;;;;;5034538;28;20481;-67
2022/02/05 03:03:46;;;;;;;239.55;117.28;;;;;;;;;;5034487;28;20033;-65
2022/02/05 03:06:12;;;;;;;185.45;90.03;;;;;;;;;;5035796;28;20034;-68
2022/02/05 03:08:39;;;;;;;195.57;96.88;;;;;;;;;;5034499;28;20029;-66
2022/02/05 03:11:05;;;;;;;195.90;96.97;;;;;;;;;;5035405;28;20389;-66
2022/02/05 03:13:31;;;;;;;195.90;95.57;;;;;;;;;;5035664;28;20076;-68
2022/02/05 03:15:57;;;;;;;192.65;93.38;;;;;;;;;;5034417;28;20493;-67
2022/02/05 03:18:31;;;;;;;190.43;99.03;;;;;;;;;;5035397;28;20025;-67
2022/02/05 03:20:57;;;;;;;199.77;99.43;;;;;;;;;;5035494;28;20037;-66
2022/02/05 03:23:23;;;;;;;202.40;104.47;;;;;;;;;;5035740;28;20059;-66
2022/02/05 03:25:50;;;;;;;240.30;115.00;;;;;;;;;;5033737;28;20028;-67
2022/02/05 03:28:16;;;;;;;229.73;112.18;;;;;;;;;;5035351;28;20032;-67
2022/02/05 03:30:42;;;;;;;234.27;116.20;;;;;;;;;;5034047;28;20144;-67
2022/02/05 03:33:09;;;;;;;213.45;106.20;;;;;;;;;;5035299;28;20075;-63
2022/02/05 03:35:36;;;;;;;224.88;108.43;;;;;;;;;;5033973;28;20490;-63
2022/02/05 03:38:02;;;;;;;228.05;110.93;;;;;;;;;;5033933;28;20359;-65
2022/02/05 03:40:29;;;;;;;227.10;114.88;;;;;;;;;;5035069;28;20048;-66
2022/02/05 03:42:55;;;;;;;234.00;117.70;;;;;;;;;;5035388;28;20036;-65
2022/02/05 03:45:21;;;;;;;249.38;118.38;;;;;;;;;;5033721;28;20485;-66
2022/02/05 03:47:50;;;;;;;260.45;123.85;;;;;;;;;;5033497;28;20056;-65
2022/02/05 03:50:17;;;;;;;238.43;121.43;;;;;;;;;;5035036;28;20025;-66
2022/02/05 03:52:44;;;;;;;224.70;109.93;;;;;;;;;;5034685;28;20032;-65
2022/02/05 03:55:11;;;;;;;230.25;117.68;;;;;;;;;;5034943;28;20029;-65
2022/02/05 03:57:37;;;;;;;221.70;115.10;;;;;;;;;;5034865;28;20029;-65
2022/02/05 04:00:07;;;;;;;233.02;117.18;;;;;;;;;;5034520;28;20429;-66
2022/02/05 04:02:33;;;;;;;227.98;117.35;;;;;;;;;;5033541;28;20038;-66
2022/02/05 04:05:00;;;;;;;245.32;124.55;;;;;;;;;;5034715;28;20462;-66
2022/02/05 04:07:29;;;;;;;237.80;122.40;;;;;;;;;;5034660;28;20457;-65
2022/02/05 04:09:59;;;;;;;228.73;114.88;;;;;;;;;;5033258;28;20116;-65
2022/02/05 04:17:56;;;;;;;186.57;96.88;;;;;;;;;;5034483;28;20091;-65
2022/02/05 04:20:22;;;;;;;197.15;98.43;;;;;;;;;;5034258;28;20040;-65
2022/02/05 04:22:48;;;;;;;182.70;92.10;;;;;;;;;;5034408;28;20025;-65
2022/02/05 04:25:14;;;;;;;183.13;90.47;;;;;;;;;;5032963;28;20120;-66
2022/02/05 04:27:41;;;;;;;174.98;90.47;;;;;;;;;;5034563;28;20120;-65
2022/02/05 04:30:07;;;;;;;169.85;83.47;;;;;;;;;;5033928;28;20386;-65
2022/02/05 04:32:33;;;;;;;157.77;84.10;;;;;;;;;;5034182;28;20033;-66
2022/02/05 04:35:00;;;;;;;150.20;79.22;;;;;;;;;;5034112;28;20026;-64
2022/02/05 04:37:28;;;;;;;156.98;83.80;;;;;;;;;;5033332;28;20037;-64
2022/02/05 04:51:13;;;;;;;292.80;137.15;;;;;;;;;;4992364;28;20053;-66
2022/02/05 04:54:04;;;;;;;283.88;137.88;;;;;;;;;;4991688;28;20030;-68
2022/02/05 04:56:50;;;;;;;291.58;142.90;;;;;;;;;;4992048;28;20042;-66
2022/02/05 05:04:51;;;;;;;319.80;155.35;;;;;;;;;;4991787;28;20085;-64
2022/02/05 05:20:20;;;;;;;312.60;151.85;;;;;;;;;;5009211;28;20122;-63
2022/02/05 05:22:46;;;;;;;267.35;134.05;;;;;;;;;;5013699;28;20041;-64
2022/02/05 05:25:12;;;;;;;268.02;135.25;;;;;;;;;;5013279;28;20037;-64
2022/02/05 05:27:39;;;;;;;264.42;133.90;;;;;;;;;;5013294;28;20371;-63
2022/02/05 05:30:06;;;;;;;273.90;136.90;;;;;;;;;;5013500;28;20029;-64
2022/02/05 05:32:32;;;;;;;276.27;139.02;;;;;;;;;;5012168;28;20457;-66
2022/02/05 05:34:58;;;;;;;240.82;125.75;;;;;;;;;;5013446;28;20037;-67
2022/02/05 05:37:25;;;;;;;253.80;128.27;;;;;;;;;;5013122;28;20526;-64
2022/02/05 05:39:51;;;;;;;228.25;121.70;;;;;;;;;;5013677;28;20398;-66
2022/02/05 05:42:40;;;;;;;252.45;128.77;;;;;;;;;;5011716;28;20034;-65
2022/02/05 05:47:49;;;;;;;220.95;117.88;;;;;;;;;;5027333;28;20132;-64
2022/02/05 05:53:20;;;;;;;238.60;126.35;;;;;;;;;;4991080;28;20512;-65
2022/02/05 05:55:47;;;;;;;240.52;125.30;;;;;;;;;;4991010;28;20033;-65
2022/02/05 05:58:14;;;;;;;253.88;130.23;;;;;;;;;;4991141;28;20065;-62
2022/02/05 06:00:41;;;;;;;256.25;130.60;;;;;;;;;;4990867;28;20214;-62
2022/02/05 06:03:07;;;;;;;250.52;125.35;;;;;;;;;;4991173;28;20037;-65
2022/02/05 06:05:33;;;;;;;218.77;114.85;;;;;;;;;;4991070;28;20079;-62
2022/02/05 06:08:00;;;;;;;198.27;105.30;;;;;;;;;;4991116;28;20037;-63
2022/02/05 06:10:26;;;;;;;185.00;97.68;;;;;;;;;;4991014;28;20042;-63
2022/02/05 06:12:52;;;;;;;180.50;97.05;;;;;;;;;;4990860;28;20037;-63
2022/02/05 06:15:18;;;;;;;171.65;93.13;;;;;;;;;;4990733;28;20177;-63
2022/02/05 06:17:45;;;;;;;185.10;96.95;;;;;;;;;;4990959;28;20035;-63
2022/02/05 06:20:11;;;;;;;168.38;88.88;;;;;;;;;;4990853;28;20026;-60
2022/02/05 06:22:38;;;;;;;175.23;91.63;;;;;;;;;;4990746;28;20549;-61
2022/02/05 06:25:04;;;;;;;165.57;87.82;;;;;;;;;;5028746;28;20029;-63
2022/02/05 06:27:31;;;;;;;152.63;84.55;;;;;;;;;;5031398;28;20445;-64
2022/02/05 06:29:57;;;;;;;158.68;84.97;;;;;;;;;;5032375;28;20032;-61
2022/02/05 06:32:23;;;;;;;157.70;85.45;;;;;;;;;;5032604;28;20087;-62
2022/02/05 06:34:49;;;;;;;167.93;88.10;;;;;;;;;;5032277;28;20393;-62
2022/02/05 06:37:17;;;;;;;193.88;100.78;;;;;;;;;;5031241;28;20065;-62
2022/02/05 06:39:44;;;;;;;196.35;105.38;;;;;;;;;;5032306;28;20377;-62
2022/02/05 06:42:10;;;;;;;160.48;87.93;;;;;;;;;;5031089;28;20038;-60
2022/02/05 06:44:36;;;;;;;189.05;103.88;;;;;;;;;;5032499;28;20033;-61
2022/02/05 06:47:03;;;;;;;229.88;115.57;;;;;;;;;;5032219;28;20129;-59
2022/02/05 06:49:30;;;;;;;195.27;102.43;;;;;;;;;;5032433;28;20521;-60
2022/02/05 06:51:57;;;;;;;232.38;115.90;;;;;;;;;;5032450;28;20029;-62
2022/02/05 06:54:23;;;;;;;214.98;108.30;;;;;;;;;;5031184;28;20083;-62
2022/02/05 06:56:49;;;;;;;225.98;114.10;;;;;;;;;;5032363;28;20079;-62
2022/02/05 06:59:17;;;;;;;215.70;115.95;;;;;;;;;;5032332;28;20056;-62
2022/02/05 07:01:43;;;;;;;243.85;127.53;;;;;;;;;;5034503;28;20450;-61
2022/02/05 07:04:09;;;;;;;233.10;127.20;;;;;;;;;;5035961;28;20029;-63
2022/02/05 07:06:35;;;;;;;275.35;138.40;;;;;;;;;;5035854;28;20057;-64
2022/02/05 07:09:04;;;;;;;274.85;136.68;;;;;;;;;;5035691;28;20036;-63
2022/02/05 07:11:30;;;;;;;254.50;131.45;;;;;;;;;;5035623;28;20026;-62
2022/02/05 07:13:57;;;;;;;246.68;128.95;;;;;;;;;;5035739;28;20101;-62
2022/02/05 07:16:29;;;;;;;258.75;132.93;;;;;;;;;;5035671;28;20111;-63
2022/02/05 07:19:14;;;;;;;252.85;129.40;;;;;;;;;;5035725;28;20032;-63
2022/02/05 07:21:46;;;;;;;257.90;134.15;;;;;;;;;;5035515;28;20029;-64
2022/02/05 07:24:32;;;;;;;298.65;151.75;;;;;;;;;;5035247;28;20413;-62
2022/02/05 07:29:43;;;;;;;297.90;152.05;;;;;;;;;;5035380;28;20040;-64
2022/02/05 07:32:10;;;;;;;337.00;169.10;;;;;;;;;;5033943;28;20028;-62
2022/02/05 07:34:36;;;;;;;313.63;161.88;;;;;;;;;;5035264;28;20112;-62
2022/02/05 07:37:03;;;;;;;304.17;152.02;;;;;;;;;;5035223;28;20488;-62
2022/02/05 07:39:30;;;;;;;299.10;155.35;;;;;;;;;;5035215;28;20021;-62
2022/02/05 07:41:59;;;;;;;302.92;151.10;;;;;;;;;;5035033;28;20478;-61
2022/02/05 07:44:25;;;;;;;309.40;157.05;;;;;;;;;;5033850;28;20036;-62
2022/02/05 07:46:52;;;;;;;320.30;163.95;;;;;;;;;;5034925;28;20045;-63
2022/02/05 07:49:20;;;;;;;330.52;170.45;;;;;;;;;;5034979;28;20034;-61
2022/02/05 07:51:46;;;;;;;323.42;168.02;;;;;;;;;;5026511;28;20065;-62
2022/02/05 07:54:12;;;;;;;314.33;163.30;;;;;;;;;;5014789;28;20115;-62
2022/02/05 07:56:46;;;;;;;306.85;157.43;;;;;;;;;;5013641;28;20030;-64
2022/02/05 07:59:13;;;;;;;315.30;160.32;;;;;;;;;;5014959;28;20041;-62
2022/02/05 08:01:39;;;;;;;300.00;156.63;;;;;;;;;;5014781;28;20038;-60
2022/02/05 08:04:06;;;;;;;288.35;150.23;;;;;;;;;;5014810;28;20121;-62
2022/02/05 08:06:34;;;;;;;290.40;154.88;;;;;;;;;;5014603;28;20026;-63
2022/02/05 08:09:04;;;;;;;340.83;177.68;;;;;;;;;;5014843;28;20022;-61
2022/02/05 08:11:43;;;;;;;304.13;155.88;;;;;;;;;;5012325;28;20029;-61
2022/02/05 08:14:11;;;;;;;284.45;151.65;;;;;;;;;;5014793;28;20121;-61
2022/02/05 08:19:07;;;;;;;284.25;147.75;;;;;;;;;;5014498;28;20164;-64
2022/02/05 08:21:33;;;;;;;276.70;146.88;;;;;;;;;;5014413;28;20148;-64
2022/02/05 08:24:00;;;;;;;301.02;160.15;;;;;;;;;;5013127;28;20032;-64
2022/02/05 08:26:31;;;;;;;266.83;142.35;;;;;;;;;;5014145;28;20033;-64
2022/02/05 08:28:57;;;;;;;262.23;140.68;;;;;;;;;;5013232;28;20501;-64
2022/02/05 08:31:24;;;;;;;221.40;120.57;;;;;;;;;;5014463;28;20030;-64
2022/02/05 08:33:52;;;;;;;225.55;124.50;;;;;;;;;;5013137;28;20356;-64
2022/02/05 08:36:21;;;;;;;208.32;117.50;;;;;;;;;;5021448;28;20108;-65
2022/02/05 08:38:47;;;;;;;204.48;118.90;;;;;;;;;;5023284;28;20026;-68
2022/02/05 08:41:13;;;;;;;177.77;101.25;;;;;;;;;;5021883;28;20033;-64
2022/02/05 08:43:40;;;;;;;166.30;91.45;;;;;;;;;;5029728;28;20052;-65
2022/02/05 08:46:06;;;;;;;202.77;103.95;;;;;;;;;;5033753;28;20116;-64
2022/02/05 08:48:32;;;;;;;213.23;103.22;;;;;;;;;;5037391;28;20025;-61
2022/02/05 08:50:58;;;;;;;215.75;100.65;;;;;;;;;;5026274;28;20037;-62
2022/02/05 08:53:25;;;;;;;297.98;120.47;;;;;;;;;;5012340;28;20036;-62
2022/02/05 08:55:52;;;;;;;405.00;158.93;;;;;;;;;;5013816;28;20026;-62
2022/02/05 08:58:19;;;;;;;198.88;95.18;;;;;;;;;;5013867;28;20021;-61
2022/02/05 09:00:53;;;;;;;111.18;62.58;;;;;;;;;;5013457;28;20525;-63
2022/02/05 09:03:34;;;;;;;100.53;53.25;;;;;;;;;;5013187;28;20490;-62
2022/02/05 09:06:02;;;;;;;90.97;54.38;;;;;;;;;;5012307;28;20116;-68
2022/02/05 09:08:37;;;;;;;86.93;48.83;;;;;;;;;;5013785;28;20026;-62
2022/02/05 09:16:11;;;;;;;77.80;44.60;;;;;;;;;;5013433;28;20033;-63
2022/02/05 09:18:38;;;;;;;81.05;45.67;;;;;;;;;;5013515;28;20018;-63
2022/02/05 09:21:04;;;;;;;74.55;43.65;;;;;;;;;;5013501;28;20080;-63
2022/02/05 09:23:31;;;;;;;71.65;43.63;;;;;;;;;;5013077;28;20029;-63
2022/02/05 09:25:59;;;;;;;75.97;42.15;;;;;;;;;;5013441;28;20045;-64
2022/02/05 09:28:28;;;;;;;81.20;46.20;;;;;;;;;;5012058;28;20385;-62
2022/02/05 09:33:35;;;;;;;71.15;40.10;;;;;;;;;;5013471;28;20026;-63
2022/02/05 09:36:02;;;;;;;69.30;38.08;;;;;;;;;;5013679;28;20061;-63
2022/02/05 09:38:28;;;;;;;71.45;40.53;;;;;;;;;;5013666;28;20084;-61
2022/02/05 09:40:54;;;;;;;80.03;41.10;;;;;;;;;;5011989;28;20467;-62
2022/02/05 09:43:25;;;;;;;65.60;34.50;;;;;;;;;;5013380;28;20053;-62
2022/02/05 09:45:51;;;;;;;74.63;40.70;;;;;;;;;;5013388;28;20022;-61
2022/02/05 09:48:18;;;;;;;74.28;42.10;;;;;;;;;;5013260;28;20042;-63
2022/02/05 09:50:46;;;;;;;71.53;38.22;;;;;;;;;;5013264;28;20028;-63
2022/02/05 09:53:19;;;;;;;78.40;40.03;;;;;;;;;;5013268;28;20032;-63
2022/02/05 09:55:46;;;;;;;85.75;45.03;;;;;;;;;;5013303;28;20026;-63
2022/02/05 09:58:12;;;;;;;83.28;47.97;;;;;;;;;;5011850;28;20484;-67
2022/02/05 10:00:39;;;;;;;81.57;45.50;;;;;;;;;;5021722;28;20045;-63
2022/02/05 10:03:39;;;;;;;77.00;44.08;;;;;;;;;;5032412;28;20018;-62
2022/02/05 10:06:40;;;;;;;71.18;40.65;;;;;;;;;;5010534;28;20042;-63
2022/02/05 10:09:06;;;;;;;79.63;42.67;;;;;;;;;;4932935;29;20501;-63
2022/02/05 10:11:47;;;;;;;73.13;41.80;;;;;;;;;;4932935;29;20040;-66
2022/02/05 10:14:18;;;;;;;72.00;40.70;;;;;;;;;;4933091;29;20452;-65
2022/02/05 10:16:49;;;;;;;71.20;42.15;;;;;;;;;;4933013;29;20050;-69
2022/02/05 10:19:15;;;;;;;76.70;42.15;;;;;;;;;;4932929;29;20039;-67
2022/02/05 10:21:42;;;;;;;74.78;43.05;;;;;;;;;;4932756;29;20083;-66
2022/02/05 10:24:09;;;;;;;76.07;43.30;;;;;;;;;;4932862;29;20024;-64
2022/02/05 10:26:38;;;;;;;75.32;41.58;;;;;;;;;;4932748;29;20039;-67
2022/02/05 10:29:23;;;;;;;67.93;38.15;;;;;;;;;;4932535;29;20153;-64
2022/02/05 10:32:12;;;;;;;60.42;36.70;;;;;;;;;;4915927;29;20461;-62
2022/02/05 10:34:59;;;;;;;86.50;47.42;;;;;;;;;;4917036;29;20031;-62
2022/02/05 10:37:29;;;;;;;71.82;42.40;;;;;;;;;;4936473;29;20104;-62
2022/02/05 10:45:14;;;;;;;69.65;40.58;;;;;;;;;;4981975;28;20080;-62
2022/02/05 10:47:49;;;;;;;103.13;52.55;;;;;;;;;;5015918;28;20513;-64
2022/02/05 10:50:21;;;;;;;80.45;44.80;;;;;;;;;;5016421;28;20108;-61
2022/02/05 10:52:52;;;;;;;69.57;38.97;;;;;;;;;;5016122;28;20034;-61
2022/02/05 11:08:07;;;;;;;100.30;56.35;;;;;;;;;;5015863;28;20040;-65
2022/02/05 11:21:14;;;;;;;100.00;59.17;;;;;;;;;;5015497;28;20072;-64
2022/02/05 11:23:41;;;;;;;95.53;57.42;;;;;;;;;;5015440;28;20418;-62
2022/02/05 11:26:08;;;;;;;180.20;103.18;;;;;;;;;;5015317;28;20080;-64
2022/02/05 11:28:42;;;;;;;125.07;74.28;;;;;;;;;;5015517;28;20034;-66
2022/02/05 11:31:13;;;;;;;123.97;74.88;;;;;;;;;;5014163;28;20375;-64
2022/02/05 11:33:40;;;;;;;119.67;73.10;;;;;;;;;;5015452;28;20036;-60
2022/02/05 11:38:44;;;;;;;121.75;68.18;;;;;;;;;;5015230;28;20037;-64
2022/02/05 11:41:44;;;;;;;103.22;59.50;;;;;;;;;;5015268;28;20048;-64
2022/02/05 11:44:23;;;;;;;113.90;66.30;;;;;;;;;;4954415;29;20043;-62
2022/02/05 11:47:04;;;;;;;119.95;70.85;;;;;;;;;;4954000;28;20539;-63
2022/02/05 11:49:49;;;;;;;109.85;63.10;;;;;;;;;;4954309;29;20039;-64
2022/02/05 11:52:33;;;;;;;102.03;55.63;;;;;;;;;;4938306;29;20122;-63
2022/02/05 11:55:00;;;;;;;96.43;50.35;;;;;;;;;;4954273;29;20476;-61
2022/02/05 11:57:45;;;;;;;79.82;40.85;;;;;;;;;;4938130;29;20047;-61
2022/02/05 12:00:11;;;;;;;77.05;41.50;;;;;;;;;;4938049;29;20035;-63
2022/02/05 12:02:38;;;;;;;93.13;47.88;;;;;;;;;;4954084;29;20075;-62
2022/02/05 12:05:12;;;;;;;68.70;37.88;;;;;;;;;;4954254;29;20023;-63
2022/02/05 12:07:58;;;;;;;54.85;31.70;;;;;;;;;;4954323;29;20035;-62
2022/02/05 12:10:36;;;;;;;52.60;29.10;;;;;;;;;;4954173;29;20070;-63
2022/02/05 12:13:15;;;;;;;45.25;26.27;;;;;;;;;;4953959;29;20456;-64
2022/02/05 12:15:45;;;;;;;48.85;27.45;;;;;;;;;;4954103;29;20066;-64
2022/02/05 12:20:56;;;;;;;45.78;26.75;;;;;;;;;;5006597;28;20482;-62
2022/02/05 12:26:12;;;;;;;45.53;26.75;;;;;;;;;;5014531;28;20041;-65
2022/02/05 12:28:42;;;;;;;50.70;26.25;;;;;;;;;;5006835;28;20090;-63
2022/02/05 12:31:18;;;;;;;45.40;27.38;;;;;;;;;;5013090;28;20541;-64
2022/02/05 12:33:48;;;;;;;42.92;26.95;;;;;;;;;;5014587;28;20040;-61
2022/02/05 12:36:15;;;;;;;47.72;24.70;;;;;;;;;;5014309;28;20018;-61
2022/02/05 12:38:42;;;;;;;46.58;27.20;;;;;;;;;;5014201;28;20124;-63
2022/02/05 12:41:10;;;;;;;58.13;30.98;;;;;;;;;;5014125;28;20121;-63
2022/02/05 12:43:49;;;;;;;49.00;29.88;;;;;;;;;;5014329;28;20044;-61
2022/02/05 12:46:15;;;;;;;48.90;28.70;;;;;;;;;;5027479;28;20045;-61
2022/02/05 12:48:46;;;;;;;42.65;26.10;;;;;;;;;;5033825;28;20032;-63
2022/02/05 12:51:12;;;;;;;53.83;28.33;;;;;;;;;;5032501;28;20030;-61
2022/02/05 12:53:40;;;;;;;46.92;26.73;;;;;;;;;;5033708;28;20032;-61
2022/02/05 12:56:14;;;;;;;45.40;26.63;;;;;;;;;;5032722;28;20044;-63
2022/02/05 12:59:03;;;;;;;44.63;27.98;;;;;;;;;;5035842;28;20117;-63
2022/02/05 13:01:34;;;;;;;50.63;28.98;;;;;;;;;;5013253;28;20692;-62
2022/02/05 13:04:13;;;;;;;43.03;28.02;;;;;;;;;;5013673;28;20045;-62
2022/02/05 13:06:40;;;;;;;51.33;29.30;;;;;;;;;;5013334;28;20080;-62
2022/02/05 13:09:20;;;;;;;60.35;31.48;;;;;;;;;;5013100;28;20378;-62
2022/02/05 13:11:46;;;;;;;58.05;28.08;;;;;;;;;;5021459;28;20481;-63
2022/02/05 13:14:12;;;;;;;47.53;29.17;;;;;;;;;;5023505;28;20459;-63
2022/02/05 13:16:41;;;;;;;44.42;24.85;;;;;;;;;;5025595;28;20030;-62
2022/02/05 13:19:21;;;;;;;57.30;28.45;;;;;;;;;;5031258;28;20386;-62
2022/02/05 13:25:26;;;;;;;58.75;33.15;;;;;;;;;;5033066;28;20080;-63
2022/02/05 13:36:16;;;;;;;53.08;31.15;;;;;;;;;;5032767;28;20040;-62
2022/02/05 13:41:27;;;;;;;61.28;34.40;;;;;;;;;;5032711;28;20048;-63
2022/02/05 13:43:56;;;;;;;61.60;35.00;;;;;;;;;;5032979;28;20550;-61
2022/02/05 13:46:23;;;;;;;66.55;33.50;;;;;;;;;;5032463;28;20406;-63
2022/02/05 13:48:49;;;;;;;67.38;36.60;;;;;;;;;;5032793;28;20029;-62
2022/02/05 13:51:18;;;;;;;61.13;34.63;;;;;;;;;;5031236;28;20122;-62
2022/02/05 13:53:59;;;;;;;61.83;36.83;;;;;;;;;;5031484;28;20055;-61
2022/02/05 13:56:32;;;;;;;63.35;34.28;;;;;;;;;;5031606;28;20121;-61
2022/02/05 13:58:58;;;;;;;58.15;31.85;;;;;;;;;;5032731;28;20022;-62
2022/02/05 14:01:28;;;;;;;54.35;27.98;;;;;;;;;;5032496;28;20390;-62
2022/02/05 14:03:55;;;;;;;58.17;29.95;;;;;;;;;;5032728;28;20500;-62
2022/02/05 14:06:21;;;;;;;53.42;29.80;;;;;;;;;;5031128;28;20101;-63
2022/02/05 14:08:48;;;;;;;60.63;32.97;;;;;;;;;;5032191;28;20033;-63
2022/02/05 14:11:17;;;;;;;81.93;41.28;;;;;;;;;;5035315;28;20358;-63
2022/02/05 14:13:43;;;;;;;74.88;38.20;;;;;;;;;;5035402;28;20375;-62
2022/02/05 14:16:10;;;;;;;95.60;46.00;;;;;;;;;;5036684;28;20025;-62
2022/02/05 14:18:47;;;;;;;89.97;44.80;;;;;;;;;;5035217;28;20030;-61
2022/02/05 14:21:13;;;;;;;82.97;46.10;;;;;;;;;;5036117;28;20529;-62
2022/02/05 14:23:50;;;;;;;81.90;44.33;;;;;;;;;;5036112;28;20022;-64
2022/02/05 14:26:19;;;;;;;73.43;43.35;;;;;;;;;;5036334;28;20048;-64
2022/02/05 14:28:51;;;;;;;82.97;44.42;;;;;;;;;;5036303;28;20029;-63
2022/02/05 14:31:33;;;;;;;78.20;45.92;;;;;;;;;;5035046;28;20112;-64
2022/02/05 14:34:13;;;;;;;89.68;49.53;;;;;;;;;;5036173;28;20071;-63
2022/02/05 14:42:02;;;;;;;91.85;54.33;;;;;;;;;;5035919;28;20394;-62
2022/02/05 14:44:28;;;;;;;109.40;58.63;;;;;;;;;;5034371;28;20040;-63
2022/02/05 14:46:55;;;;;;;95.90;55.65;;;;;;;;;;5035907;28;20100;-62
2022/02/05 14:49:21;;;;;;;100.68;58.35;;;;;;;;;;5035980;28;20064;-62
2022/02/05 14:51:47;;;;;;;112.15;62.15;;;;;;;;;;5035668;28;20037;-62
2022/02/05 14:54:14;;;;;;;109.07;66.13;;;;;;;;;;5035870;28;20436;-62
2022/02/05 14:56:41;;;;;;;114.55;67.65;;;;;;;;;;5034330;28;20113;-62
2022/02/05 14:59:07;;;;;;;128.30;71.25;;;;;;;;;;5035660;28;20067;-62
2022/02/05 15:01:34;;;;;;;190.00;98.57;;;;;;;;;;5035636;28;20069;-62
2022/02/05 15:04:01;;;;;;;168.82;91.15;;;;;;;;;;5035769;28;20029;-63
2022/02/05 15:06:30;;;;;;;165.52;81.18;;;;;;;;;;5035211;28;20021;-63
2022/02/05 15:08:57;;;;;;;157.35;78.28;;;;;;;;;;5014398;28;20121;-61
2022/02/05 15:11:24;;;;;;;112.18;58.03;;;;;;;;;;5015637;28;20056;-61
2022/02/05 15:13:52;;;;;;;78.32;41.03;;;;;;;;;;5015398;28;20107;-61
2022/02/05 15:16:21;;;;;;;44.65;21.27;;;;;;;;;;5013556;28;20026;-61
2022/02/05 15:18:55;;;;;;;42.45;20.55;;;;;;;;;;5014171;28;20049;-61
2022/02/05 15:21:22;;;;;;;42.25;13.68;;;;;;;;;;5014424;28;20105;-61
2022/02/05 15:23:48;;;;;;;33.53;14.57;;;;;;;;;;5015041;28;20028;-61
2022/02/05 15:26:16;;;;;;;36.70;15.73;;;;;;;;;;5013590;28;20053;-61
2022/02/05 15:28:46;;;;;;;35.40;16.45;;;;;;;;;;5015089;28;20026;-62
2022/02/05 15:31:12;;;;;;;35.60;17.02;;;;;;;;;;5013794;28;20044;-61
2022/02/05 15:33:47;;;;;;;21.52;8.85;;;;;;;;;;5014306;28;20115;-61
2022/02/05 15:36:17;;;;;;;29.80;14.25;;;;;;;;;;5015140;28;20026;-61
2022/02/05 15:44:06;;;;;;;10.25;5.68;;;;;;;;;;5014779;28;20080;-60
2022/02/05 15:46:33;;;;;;;13.93;8.07;;;;;;;;;;5014774;28;20068;-60
2022/02/05 15:48:59;;;;;;;21.20;9.25;;;;;;;;;;5014849;28;20145;-61
2022/02/05 15:51:29;;;;;;;21.45;9.90;;;;;;;;;;5014699;28;20501;-61
2022/02/05 15:54:00;;;;;;;17.40;8.82;;;;;;;;;;5015053;28;20045;-61
2022/02/05 15:56:42;;;;;;;11.82;7.07;;;;;;;;;;5013668;28;20034;-60
2022/02/05 15:59:12;;;;;;;15.80;8.65;;;;;;;;;;5014812;28;20030;-61
2022/02/05 16:01:39;;;;;;;31.63;12.18;;;;;;;;;;5015012;28;20390;-61
2022/02/05 16:04:06;;;;;;;34.00;13.55;;;;;;;;;;5013484;28;20080;-60
2022/02/05 16:06:36;;;;;;;38.35;15.18;;;;;;;;;;5014886;28;20025;-62
2022/02/05 16:09:03;;;;;;;34.42;15.02;;;;;;;;;;5014267;28;20509;-62
2022/02/05 16:11:29;;;;;;;43.08;19.48;;;;;;;;;;5013488;28;20383;-61
2022/02/05 16:13:55;;;;;;;30.33;11.80;;;;;;;;;;5014535;28;20018;-62
2022/02/05 16:16:22;;;;;;;24.08;10.90;;;;;;;;;;5014192;28;20498;-62
2022/02/05 16:18:48;;;;;;;16.25;7.60;;;;;;;;;;5014598;28;20028;-62
2022/02/05 16:21:14;;;;;;;15.93;7.60;;;;;;;;;;5012789;28;20068;-61
2022/02/05 16:23:40;;;;;;;13.85;7.65;;;;;;;;;;5014465;28;20466;-61
2022/02/05 16:26:07;;;;;;;16.63;7.63;;;;;;;;;;5014125;28;20117;-62
2022/02/05 16:28:35;;;;;;;77.72;41.58;;;;;;;;;;5014380;28;20112;-59
2022/02/05 16:31:03;;;;;;;57.10;28.00;;;;;;;;;;5014251;28;20018;-63
2022/02/05 16:33:32;;;;;;;136.00;62.10;;;;;;;;;;5013380;28;20018;-61
2022/02/05 16:36:07;;;;;;;237.95;94.05;;;;;;;;;;5014208;28;20018;-62
2022/02/05 16:38:37;;;;;;;262.15;107.32;;;;;;;;;;5013957;28;20443;-61
2022/02/05 16:41:05;;;;;;;248.55;107.85;;;;;;;;;;5014001;28;20033;-62
2022/02/05 16:43:32;;;;;;;167.50;71.63;;;;;;;;;;5013979;28;20028;-61
2022/02/05 16:45:58;;;;;;;151.13;65.80;;;;;;;;;;5013724;28;20050;-62
2022/02/05 16:48:25;;;;;;;150.65;65.57;;;;;;;;;;5013723;28;20057;-61
2022/02/05 16:50:51;;;;;;;66.93;33.28;;;;;;;;;;5013982;28;20030;-61
2022/02/05 16:53:17;;;;;;;32.25;16.55;;;;;;;;;;5013626;28;20034;-62
2022/02/05 16:55:44;;;;;;;37.00;15.43;;;;;;;;;;5013961;28;20026;-61
2022/02/05 16:58:11;;;;;;;68.50;30.88;;;;;;;;;;5013780;28;20026;-61
2022/02/05 17:00:37;;;;;;;125.53;66.50;;;;;;;;;;5013547;28;20391;-67
2022/02/05 17:03:04;;;;;;;104.65;61.28;;;;;;;;;;5012272;28;20033;-65
2022/02/05 17:16:00;;;;;;;45.97;23.90;;;;;;;;;;5151607;27;20386;-64
2022/02/05 17:18:29;;;;;;;71.53;39.30;;;;;;;;;;5151991;27;20026;-64
2022/02/05 17:20:57;;;;;;;55.85;27.60;;;;;;;;;;5151862;27;20467;-63
2022/02/05 17:23:28;;;;;;;203.93;90.43;;;;;;;;;;5151769;27;20033;-63
2022/02/05 17:25:55;;;;;;;183.23;88.63;;;;;;;;;;5151792;27;20015;-63
2022/02/05 17:28:22;;;;;;;157.75;80.05;;;;;;;;;;5133173;27;20370;-64
2022/02/05 17:30:48;;;;;;;174.20;85.70;;;;;;;;;;5151296;27;20383;-63
2022/02/05 17:33:15;;;;;;;133.05;70.60;;;;;;;;;;5151451;27;20030;-63
2022/02/05 17:35:44;;;;;;;115.85;60.72;;;;;;;;;;5151193;27;20045;-63
2022/02/05 17:38:16;;;;;;;78.70;38.47;;;;;;;;;;5150672;27;20049;-63
2022/02/05 17:40:42;;;;;;;71.18;35.53;;;;;;;;;;5132973;27;20484;-63
2022/02/05 17:43:08;;;;;;;105.47;59.95;;;;;;;;;;5149774;27;20023;-64
2022/02/05 17:45:35;;;;;;;68.13;34.78;;;;;;;;;;5132541;27;20058;-64
2022/02/05 17:48:01;;;;;;;101.55;51.00;;;;;;;;;;5151420;27;20018;-64
2022/02/05 17:50:27;;;;;;;110.47;47.75;;;;;;;;;;5132587;27;20023;-64
2022/02/05 17:52:53;;;;;;;146.88;65.90;;;;;;;;;;5151255;27;20019;-63